Time;durP1;ratioP1;P1;durP2;ratioP2;P2;SDS_P1;SDS_P2;PMS_P1;PMS_P2;Temp;Humidity;BMP_temperature;BMP_pressure;BME280_temperature;BME280_humidity;BME280_pressure;Samples;Min_cycle;Max_cycle;Signal;HPM_P1;HPM_P2
2024/04/02 00:02:06;;;;;;;0.00;0.00;;;;;;;7.18;100.00;98419.06;4751810;29;20031;-77
2024/04/02 00:04:31;;;;;;;0.00;0.00;;;;;;;7.08;100.00;98401.00;4785453;29;20449;-77
2024/04/02 00:06:56;;;;;;;0.10;0.10;;;;;;;7.18;100.00;98418.28;4761141;30;20425;-77
2024/04/02 00:09:25;;;;;;;0.00;0.00;;;;;;;7.38;100.00;98447.91;4771354;29;20042;-80
2024/04/02 00:11:50;;;;;;;0.00;0.00;;;;;;;7.21;100.00;98404.88;4787384;29;20110;-78
2024/04/02 00:14:18;;;;;;;0.00;0.00;;;;;;;7.39;100.00;98416.88;4766898;29;20139;-78
2024/04/02 00:16:43;;;;;;;0.10;0.10;;;;;;;7.42;100.00;98415.50;4763179;30;20027;-78
2024/04/02 00:19:16;;;;;;;0.00;0.00;;;;;;;7.49;100.00;98426.78;4774131;29;20097;-76
2024/04/02 00:21:43;;;;;;;0.10;0.10;;;;;;;7.47;100.00;98408.06;4761898;29;20122;-77
2024/04/02 00:24:09;;;;;;;0.00;0.00;;;;;;;7.63;100.00;98432.31;4775076;29;20429;-79
2024/04/02 00:26:34;;;;;;;0.00;0.00;;;;;;;7.60;100.00;98422.03;4771150;29;20035;-79
2024/04/02 00:29:00;;;;;;;0.00;0.00;;;;;;;7.62;100.00;98419.81;4773607;29;20087;-77
2024/04/02 00:31:28;;;;;;;0.10;0.10;;;;;;;7.76;100.00;98437.00;4768755;29;20031;-79
2024/04/02 00:34:00;;;;;;;0.00;0.00;;;;;;;7.60;100.00;98409.22;4773081;29;20031;-77
2024/04/02 00:36:28;;;;;;;0.00;0.00;;;;;;;7.48;100.00;98408.88;4761746;30;20059;-79
2024/04/02 00:38:56;;;;;;;0.00;0.00;;;;;;;7.65;100.00;98430.09;4783235;29;20031;-79
2024/04/02 00:41:24;;;;;;;0.00;0.00;;;;;;;7.72;100.00;98438.69;4778726;29;20038;-79
2024/04/02 00:43:50;;;;;;;0.00;0.00;;;;;;;7.65;100.00;98427.38;4775240;29;20559;-78
2024/04/02 00:46:18;;;;;;;0.00;0.00;;;;;;;7.59;100.00;98426.63;4774971;29;20040;-78
2024/04/02 00:48:43;;;;;;;0.00;0.00;;;;;;;7.60;100.00;98420.09;4769900;29;20041;-79
2024/04/02 00:51:09;;;;;;;0.00;0.00;;;;;;;7.72;100.00;98441.41;4765835;30;20047;-79
2024/04/02 00:53:35;;;;;;;0.00;0.00;;;;;;;7.64;100.00;98420.34;4781654;29;20118;-77
2024/04/02 00:56:04;;;;;;;0.00;0.00;;;;;;;7.68;100.00;98429.50;4750477;30;20035;-76
2024/04/02 00:58:32;;;;;;;0.10;0.10;;;;;;;7.66;100.00;98415.41;4758291;29;20059;-77
2024/04/02 01:00:58;;;;;;;0.00;0.00;;;;;;;7.76;100.00;98431.56;4742345;29;20126;-76
2024/04/02 01:03:26;;;;;;;0.00;0.00;;;;;;;7.58;100.00;98402.44;4769081;29;20119;-77
2024/04/02 01:05:52;;;;;;;0.00;0.00;;;;;;;7.69;100.00;98428.41;4783927;29;20130;-77
2024/04/02 01:08:20;;;;;;;0.10;0.10;;;;;;;7.63;100.00;98424.94;4772613;29;20134;-78
2024/04/02 01:10:46;;;;;;;0.10;0.10;;;;;;;7.57;100.00;98409.03;4789657;29;20035;-77
2024/04/02 01:13:12;;;;;;;0.00;0.00;;;;;;;7.55;100.00;98403.06;4767831;29;20140;-78
2024/04/02 01:15:40;;;;;;;0.00;0.00;;;;;;;7.74;100.00;98439.22;4786085;29;20031;-77
2024/04/02 01:18:09;;;;;;;0.10;0.10;;;;;;;7.65;100.00;98420.03;4757104;29;20135;-78
2024/04/02 01:20:34;;;;;;;0.10;0.10;;;;;;;7.62;100.00;98408.94;4782430;29;20033;-79
2024/04/02 01:23:00;;;;;;;0.00;0.00;;;;;;;7.75;100.00;98435.38;4777009;29;20059;-78
2024/04/02 01:25:25;;;;;;;0.00;0.00;;;;;;;7.65;100.00;98411.06;4790608;29;20457;-77
2024/04/02 01:27:50;;;;;;;0.00;0.00;;;;;;;7.82;100.00;98435.81;4779395;29;20023;-76
2024/04/02 01:30:16;;;;;;;0.00;0.00;;;;;;;7.88;100.00;98450.16;4782109;29;20386;-77
2024/04/02 01:32:43;;;;;;;0.00;0.00;;;;;;;7.76;100.00;98426.13;4766913;30;20084;-76
2024/04/02 01:35:31;;;;;;;0.00;0.00;;;;;;;7.60;100.00;98392.91;4784974;29;20043;-78
2024/04/02 01:37:57;;;;;;;0.00;0.00;;;;;;;7.93;100.00;98443.81;4786701;29;20040;-78
2024/04/02 01:40:25;;;;;;;0.00;0.00;;;;;;;7.74;100.00;98422.91;4785942;29;20027;-77
2024/04/02 01:42:53;;;;;;;0.00;0.00;;;;;;;7.61;100.00;98401.88;4760806;30;20055;-76
2024/04/02 01:45:18;;;;;;;0.00;0.00;;;;;;;7.84;100.00;98432.78;4786864;29;20095;-77
2024/04/02 01:47:44;;;;;;;0.00;0.00;;;;;;;7.88;100.00;98435.75;4768422;29;20483;-77
2024/04/02 01:50:09;;;;;;;0.08;0.08;;;;;;;7.81;100.00;98423.34;4776176;29;20114;-78
2024/04/02 01:52:35;;;;;;;0.10;0.10;;;;;;;7.85;100.00;98446.09;4786036;29;20046;-77
2024/04/02 01:55:00;;;;;;;0.00;0.00;;;;;;;7.79;100.00;98430.16;4768593;29;20047;-77
2024/04/02 01:57:36;;;;;;;;;;;;;;;;;;;;;
2024/04/02 02:00:04;;;;;;;0.00;0.00;;;;;;;7.69;100.00;98398.47;4768131;29;20035;-76
2024/04/02 02:02:30;;;;;;;0.00;0.00;;;;;;;7.80;100.00;98415.47;4757665;29;20036;-76
2024/04/02 02:04:56;;;;;;;0.00;0.00;;;;;;;7.74;100.00;98401.13;4779462;29;20117;-77
2024/04/02 02:07:21;;;;;;;0.00;0.00;;;;;;;7.91;100.00;98426.97;4788792;29;20058;-75
2024/04/02 02:09:51;;;;;;;0.00;0.00;;;;;;;7.97;100.00;98434.78;4755597;29;20140;-76
2024/04/02 02:12:17;;;;;;;0.00;0.00;;;;;;;7.75;100.00;98400.00;4765865;29;20039;-77
2024/04/02 02:14:42;;;;;;;0.00;0.00;;;;;;;7.76;100.00;98396.19;4797939;29;20039;-75
2024/04/02 02:17:08;;;;;;;0.00;0.00;;;;;;;8.02;100.00;98428.44;4799646;29;20058;-76
2024/04/02 02:19:33;;;;;;;0.00;0.00;;;;;;;8.01;100.00;98426.81;4771430;30;20039;-76
2024/04/02 02:22:06;;;;;;;0.00;0.00;;;;;;;7.97;100.00;98432.06;4776384;29;20052;-76
2024/04/02 02:24:39;;;;;;;0.00;0.00;;;;;;;7.89;100.00;98415.59;4794053;29;20155;-77
2024/04/02 02:27:05;;;;;;;0.00;0.00;;;;;;;7.86;100.00;98423.22;4772491;30;20166;-77
2024/04/02 02:29:33;;;;;;;0.00;0.00;;;;;;;8.00;100.00;98455.13;4788883;29;20035;-76
2024/04/02 02:32:01;;;;;;;0.00;0.00;;;;;;;7.81;100.00;98419.78;4778551;29;20078;-77
2024/04/02 02:34:44;;;;;;;0.00;0.00;;;;;;;8.08;100.00;98454.47;4761897;29;20043;-76
2024/04/02 02:37:09;;;;;;;0.03;0.03;;;;;;;7.90;100.00;98419.91;4783828;29;20069;-76
2024/04/02 02:39:35;;;;;;;0.00;0.00;;;;;;;8.06;100.00;98445.78;4782437;29;20059;-75
2024/04/02 02:42:00;;;;;;;0.00;0.00;;;;;;;8.11;100.00;98453.88;4782857;29;20560;-76
2024/04/02 02:44:28;;;;;;;0.00;0.00;;;;;;;8.00;100.00;98442.34;4765132;30;20043;-77
2024/04/02 02:46:56;;;;;;;0.00;0.00;;;;;;;8.13;100.00;98454.41;4779366;29;20057;-76
2024/04/02 02:49:25;;;;;;;0.00;0.00;;;;;;;8.12;100.00;98455.50;4760359;30;20036;-77
2024/04/02 02:51:50;;;;;;;0.00;0.00;;;;;;;8.12;100.00;98450.03;4762794;29;20036;-76
2024/04/02 02:54:16;;;;;;;0.00;0.00;;;;;;;8.12;100.00;98449.22;4775179;29;20420;-77
2024/04/02 02:56:41;;;;;;;0.00;0.00;;;;;;;8.26;100.00;98471.06;4764238;29;20031;-78
2024/04/02 02:59:07;;;;;;;0.00;0.00;;;;;;;8.35;100.00;98482.88;4775795;29;20453;-77
2024/04/02 03:01:32;;;;;;;0.00;0.00;;;;;;;8.37;100.00;98483.41;4778610;29;20039;-77
2024/04/02 03:04:01;;;;;;;0.00;0.00;;;;;;;8.29;100.00;98481.34;4760670;30;20043;-77
2024/04/02 03:06:26;;;;;;;0.00;0.00;;;;;;;8.33;100.00;98483.16;4777896;29;20063;-78
2024/04/02 03:08:55;;;;;;;0.10;0.10;;;;;;;8.20;100.00;98483.94;4768856;29;20063;-77
2024/04/02 03:11:20;;;;;;;0.00;0.00;;;;;;;8.00;100.00;98463.28;4787075;29;20031;-76
2024/04/02 03:13:45;;;;;;;0.00;0.00;;;;;;;7.83;100.00;98459.22;4758128;29;20046;-78
2024/04/02 03:16:11;;;;;;;0.00;0.00;;;;;;;7.84;100.00;98479.88;4778088;29;20038;-78
2024/04/02 03:18:36;;;;;;;0.00;0.00;;;;;;;7.72;100.00;98476.78;4767059;29;20477;-76
2024/04/02 03:21:19;;;;;;;0.10;0.10;;;;;;;7.65;100.00;98479.06;4787314;29;20555;-78
2024/04/02 03:23:46;;;;;;;0.00;0.00;;;;;;;7.69;100.00;98491.81;4780059;29;20038;-79
2024/04/02 03:26:13;;;;;;;0.00;0.00;;;;;;;7.80;100.00;98503.34;4776921;29;20095;-78
2024/04/02 03:28:39;;;;;;;0.10;0.10;;;;;;;7.95;100.00;98520.53;4773437;29;20572;-77
2024/04/02 03:31:04;;;;;;;0.10;0.10;;;;;;;7.70;100.00;98495.31;4770176;29;20056;-77
2024/04/02 03:33:52;;;;;;;0.00;0.00;;;;;;;7.72;100.00;98514.88;4760882;30;20043;-78
2024/04/02 03:36:21;;;;;;;0.00;0.00;;;;;;;7.53;100.00;98503.19;4775123;29;20039;-77
2024/04/02 03:38:46;;;;;;;0.00;0.00;;;;;;;7.41;100.00;98509.84;4775321;29;20085;-78
2024/04/02 03:41:16;;;;;;;0.00;0.00;;;;;;;7.48;100.00;98529.34;4769171;29;20039;-76
2024/04/02 03:43:42;;;;;;;0.00;0.00;;;;;;;7.12;100.00;98499.06;4769712;29;20039;-78
2024/04/02 03:46:12;;;;;;;0.00;0.00;;;;;;;7.34;100.00;98533.88;4782929;29;20034;-77
2024/04/02 03:48:50;;;;;;;;;;;;;;;;;;;;;
2024/04/02 03:51:23;;;;;;;0.10;0.10;;;;;;;6.90;100.00;98507.75;4788618;29;20368;-76
2024/04/02 03:53:51;;;;;;;0.00;0.00;;;;;;;7.00;100.00;98542.97;4785467;29;20469;-76
2024/04/02 03:56:19;;;;;;;0.10;0.10;;;;;;;6.73;100.00;98511.75;4771334;29;20027;-77
2024/04/02 03:58:45;;;;;;;0.00;0.00;;;;;;;6.80;100.00;98547.53;4783445;29;20038;-77
2024/04/02 04:01:10;;;;;;;0.10;0.10;;;;;;;6.75;100.00;98557.63;4736423;29;20047;-77
2024/04/02 04:03:36;;;;;;;0.00;0.00;;;;;;;6.55;100.00;98555.91;4777363;29;20024;-77
2024/04/02 04:06:03;;;;;;;0.00;0.00;;;;;;;6.63;100.00;98577.03;4756608;29;20035;-77
2024/04/02 04:08:30;;;;;;;0.00;0.00;;;;;;;6.54;100.00;98576.00;4771600;29;20031;-78
2024/04/02 04:10:56;;;;;;;0.00;0.00;;;;;;;6.36;100.00;98566.66;4783245;29;20043;-78
2024/04/02 04:13:24;;;;;;;0.00;0.00;;;;;;;6.38;100.00;98584.28;4773558;29;20065;-78
2024/04/02 04:15:51;;;;;;;0.00;0.00;;;;;;;6.30;100.00;98587.59;4785647;29;20065;-78
2024/04/02 04:18:17;;;;;;;0.00;0.00;;;;;;;6.26;100.00;98581.09;4784538;29;20035;-78
2024/04/02 04:20:56;;;;;;;0.10;0.10;;;;;;;6.36;100.00;98600.03;4793427;29;20042;-78
2024/04/02 04:23:22;;;;;;;0.10;0.10;;;;;;;6.14;100.00;98583.38;4780293;29;20035;-79
2024/04/02 04:26:02;;;;;;;0.10;0.10;;;;;;;5.95;100.00;98570.44;4778917;29;20023;-77
2024/04/02 04:28:28;;;;;;;0.00;0.00;;;;;;;6.04;100.00;98600.53;4769428;29;20038;-77
2024/04/02 04:30:59;;;;;;;0.00;0.00;;;;;;;6.15;100.00;98633.81;4780941;29;20031;-77
2024/04/02 04:33:25;;;;;;;0.00;0.00;;;;;;;6.01;100.00;98628.22;4774236;29;20032;-77
2024/04/02 04:35:54;;;;;;;0.00;0.00;;;;;;;5.98;100.00;98634.22;4785897;29;20027;-77
2024/04/02 04:38:30;;;;;;;0.00;0.00;;;;;;;5.94;100.00;98633.91;4777882;29;20032;-77
2024/04/02 04:41:03;;;;;;;0.00;0.00;;;;;;;5.92;100.00;98631.47;4772436;29;20028;-78
2024/04/02 04:43:28;;;;;;;0.10;0.10;;;;;;;5.92;100.00;98631.47;4792452;29;20035;-76
2024/04/02 04:45:55;;;;;;;0.00;0.00;;;;;;;5.94;100.00;98637.44;4762888;30;20043;-77
2024/04/02 04:48:21;;;;;;;0.00;0.00;;;;;;;6.06;100.00;98661.56;4785188;29;20471;-77
2024/04/02 04:50:57;;;;;;;0.05;0.05;;;;;;;6.08;100.00;98677.56;4800901;29;20037;-76
2024/04/02 04:53:25;;;;;;;0.00;0.00;;;;;;;6.13;100.00;98690.28;4794444;29;20112;-76
2024/04/02 04:55:50;;;;;;;0.00;0.00;;;;;;;6.17;100.00;98692.16;4787423;29;20158;-76
2024/04/02 04:58:16;;;;;;;0.10;0.10;;;;;;;6.22;100.00;98699.47;4786830;29;20115;-77
2024/04/02 05:00:43;;;;;;;0.10;0.10;;;;;;;6.01;100.00;98677.88;4772134;29;20023;-76
2024/04/02 05:03:08;;;;;;;0.00;0.00;;;;;;;5.91;100.00;98667.03;4771778;29;20475;-77
2024/04/02 05:05:36;;;;;;;0.00;0.00;;;;;;;5.96;100.00;98680.59;4771310;29;20126;-76
2024/04/02 05:08:20;;;;;;;0.00;0.00;;;;;;;6.04;100.00;98704.44;4783686;29;20364;-76
2024/04/02 05:10:46;;;;;;;0.10;0.10;;;;;;;6.03;100.00;98694.69;4780766;29;20090;-76
2024/04/02 05:13:12;;;;;;;0.00;0.00;;;;;;;5.97;100.00;98682.22;4802176;29;20027;-76
2024/04/02 05:15:38;;;;;;;0.00;0.00;;;;;;;6.00;100.00;98687.13;4783910;29;20391;-77
2024/04/02 05:18:07;;;;;;;0.00;0.00;;;;;;;6.02;100.00;98684.91;4779228;29;20035;-77
2024/04/02 05:20:33;;;;;;;0.00;0.00;;;;;;;6.15;100.00;98709.81;4798999;29;20121;-78
2024/04/02 05:23:01;;;;;;;0.00;0.00;;;;;;;6.21;100.00;98717.66;4780663;29;20156;-78
2024/04/02 05:25:26;;;;;;;0.00;0.00;;;;;;;6.29;100.00;98727.13;4779686;29;20043;-77
2024/04/02 05:27:52;;;;;;;0.10;0.10;;;;;;;6.11;100.00;98693.28;4758839;29;20033;-77
2024/04/02 05:30:17;;;;;;;0.10;0.10;;;;;;;6.16;100.00;98716.88;4786752;29;20120;-76
2024/04/02 05:32:43;;;;;;;0.03;0.03;;;;;;;6.35;100.00;98758.59;4770909;29;20042;-76
2024/04/02 05:35:08;;;;;;;0.00;0.00;;;;;;;6.30;100.00;98745.03;4771905;30;20038;-78
2024/04/02 05:37:37;;;;;;;0.00;0.00;;;;;;;6.20;100.00;98745.09;4784230;29;20071;-76
2024/04/02 05:40:04;;;;;;;0.00;0.00;;;;;;;6.35;100.00;98766.75;4780362;29;20463;-78
2024/04/02 05:42:30;;;;;;;0.00;0.00;;;;;;;6.38;100.00;98771.63;4785588;29;20113;-78
2024/04/02 05:44:56;;;;;;;0.00;0.00;;;;;;;6.41;100.00;98762.91;4785288;29;20088;-79
2024/04/02 05:47:22;;;;;;;0.00;0.00;;;;;;;6.43;100.00;98777.00;4760961;30;20428;-79
2024/04/02 05:49:50;;;;;;;0.00;0.00;;;;;;;6.42;100.00;98763.72;4759517;29;20402;-77
2024/04/02 05:52:16;;;;;;;0.10;0.10;;;;;;;6.56;100.00;98791.09;4780969;29;20110;-79
2024/04/02 05:54:42;;;;;;;0.00;0.00;;;;;;;6.60;100.00;98783.97;4797947;29;20035;-78
2024/04/02 05:57:07;;;;;;;0.00;0.00;;;;;;;6.42;100.00;98769.16;4791157;29;20126;-78
2024/04/02 05:59:51;;;;;;;;;;;;;;;;;;;;;
2024/04/02 06:02:47;;;;;;;;;;;;;;;;;;;;;
2024/04/02 06:05:28;;;;;;;;;;;;;;;;;;;;;
2024/04/02 06:08:02;;;;;;;0.00;0.00;;;;;;;6.44;100.00;98788.72;4777488;29;20028;-78
2024/04/02 06:10:29;;;;;;;0.00;0.00;;;;;;;6.27;100.00;98778.97;4794871;29;20100;-76
2024/04/02 06:12:58;;;;;;;0.00;0.00;;;;;;;6.15;100.00;98766.81;4764945;29;20027;-80
2024/04/02 06:15:28;;;;;;;0.00;0.00;;;;;;;6.39;100.00;98789.53;4777336;30;20037;-78
2024/04/02 06:17:54;;;;;;;0.00;0.00;;;;;;;6.45;100.00;98802.00;4767991;29;20478;-77
2024/04/02 06:20:19;;;;;;;0.00;0.00;;;;;;;6.55;100.00;98822.06;4760601;30;20032;-76
2024/04/02 06:22:50;;;;;;;0.00;0.00;;;;;;;6.44;100.00;98816.66;4761453;29;20043;-76
2024/04/02 06:25:35;;;;;;;0.00;0.00;;;;;;;6.53;100.00;98832.38;4769690;29;20557;-76
2024/04/02 06:30:49;;;;;;;0.10;0.10;;;;;;;6.50;100.00;98835.63;5433760;24;20047;-75
2024/04/02 06:33:14;;;;;;;0.00;0.00;;;;;;;6.49;100.00;98853.03;4811516;29;20037;-76
2024/04/02 06:35:43;;;;;;;0.10;0.10;;;;;;;6.31;100.00;98817.25;4792807;29;20078;-78
2024/04/02 06:52:58;;;;;;;0.00;0.00;;;;;;;7.04;100.00;98900.06;4801874;29;20043;-77
2024/04/02 06:55:24;;;;;;;0.00;0.00;;;;;;;6.82;100.00;98881.44;4823683;29;20026;-75
2024/04/02 06:57:51;;;;;;;0.00;0.00;;;;;;;6.82;100.00;98897.72;4802553;29;20095;-76
2024/04/02 07:00:17;;;;;;;0.00;0.00;;;;;;;6.63;100.00;98894.81;4794367;29;20042;-76
2024/04/02 07:02:42;;;;;;;0.00;0.00;;;;;;;6.85;100.00;98926.22;4821181;29;20031;-76
2024/04/02 07:05:08;;;;;;;0.00;0.00;;;;;;;6.99;100.00;98940.84;4798085;29;20031;-75
2024/04/02 07:07:33;;;;;;;0.00;0.00;;;;;;;7.14;100.00;98915.50;4796795;29;20039;-74
2024/04/02 07:10:03;;;;;;;0.00;0.00;;;;;;;7.34;100.00;98926.28;4809865;29;20038;-75
2024/04/02 07:12:32;;;;;;;0.00;0.00;;;;;;;7.32;100.00;98922.19;4820306;29;20118;-76
2024/04/02 07:14:57;;;;;;;0.10;0.10;;;;;;;7.53;100.00;98936.47;4802880;29;20038;-76
2024/04/02 07:17:26;;;;;;;0.00;0.00;;;;;;;7.60;100.00;98928.81;4785634;29;20141;-75
2024/04/02 07:19:52;;;;;;;0.00;0.00;;;;;;;7.77;100.00;98943.91;4797579;29;20053;-75
2024/04/02 07:22:28;;;;;;;0.10;0.10;;;;;;;7.85;100.00;98935.97;4802265;29;20031;-75
2024/04/02 07:24:54;;;;;;;0.00;0.00;;;;;;;8.03;100.00;98958.13;4782273;29;20131;-75
2024/04/02 07:27:19;;;;;;;0.00;0.00;;;;;;;8.16;100.00;98973.03;4798872;29;20125;-76
2024/04/02 07:29:44;;;;;;;0.03;0.03;;;;;;;8.14;100.00;98948.78;4774468;29;20386;-75
2024/04/02 07:32:20;;;;;;;0.00;0.00;;;;;;;8.40;100.00;98940.41;4801715;29;20143;-76
2024/04/02 07:34:48;;;;;;;0.10;0.10;;;;;;;8.91;100.00;98967.13;4799280;29;20105;-75
2024/04/02 07:37:13;;;;;;;0.00;0.00;;;;;;;9.16;100.00;98967.91;4811893;29;20039;-75
2024/04/02 07:39:41;;;;;;;0.10;0.10;;;;;;;9.12;100.00;98961.41;4785761;29;20038;-77
2024/04/02 07:42:06;;;;;;;0.00;0.00;;;;;;;9.01;100.00;98960.75;4802286;29;20042;-75
2024/04/02 07:44:34;;;;;;;0.00;0.00;;;;;;;9.26;100.00;98951.41;4789795;29;20043;-75
2024/04/02 07:46:59;;;;;;;0.00;0.00;;;;;;;9.77;100.00;98971.72;4808879;29;20099;-75
2024/04/02 07:49:25;;;;;;;0.00;0.00;;;;;;;10.05;100.00;98979.22;4802100;29;20047;-76
2024/04/02 07:51:52;;;;;;;0.00;0.00;;;;;;;10.30;100.00;98995.16;4783342;29;20088;-75
2024/04/02 07:54:17;;;;;;;0.00;0.00;;;;;;;10.33;100.00;99004.69;4797160;29;20402;-75
2024/04/02 07:56:43;;;;;;;0.00;0.00;;;;;;;10.18;100.00;99008.50;4798578;29;20064;-76
2024/04/02 07:59:11;;;;;;;0.00;0.00;;;;;;;10.14;100.00;99008.25;4786202;29;20031;-75
2024/04/02 08:01:36;;;;;;;0.05;0.05;;;;;;;10.08;100.00;99004.00;4809754;29;20082;-74
2024/04/02 08:04:01;;;;;;;0.10;0.10;;;;;;;10.24;100.00;99020.16;4774574;29;20110;-75
2024/04/02 08:06:29;;;;;;;0.00;0.00;;;;;;;10.48;100.00;99034.53;4799367;29;20492;-74
2024/04/02 08:08:54;;;;;;;0.00;0.00;;;;;;;10.54;100.00;99032.53;4805542;29;20034;-75
2024/04/02 08:11:22;;;;;;;0.10;0.10;;;;;;;10.53;100.00;99025.44;4808602;29;20072;-76
2024/04/02 08:13:47;;;;;;;0.10;0.10;;;;;;;10.52;100.00;99001.94;4799123;29;20026;-76
2024/04/02 08:16:17;;;;;;;0.00;0.00;;;;;;;10.78;100.00;99042.50;4802470;29;20043;-77
2024/04/02 08:18:47;;;;;;;0.00;0.00;;;;;;;10.70;100.00;99043.19;4786879;29;20038;-75
2024/04/02 08:21:12;;;;;;;0.00;0.00;;;;;;;10.62;100.00;99053.69;4800554;29;20553;-76
2024/04/02 08:23:41;;;;;;;0.00;0.00;;;;;;;10.49;100.00;99046.28;4792407;29;20046;-76
2024/04/02 08:26:07;;;;;;;0.00;0.00;;;;;;;10.39;100.00;99054.66;4802495;29;20038;-75
2024/04/02 08:28:33;;;;;;;0.00;0.00;;;;;;;10.36;100.00;99047.03;4804833;29;20045;-74
2024/04/02 08:30:58;;;;;;;0.00;0.00;;;;;;;10.64;100.00;99064.31;4795531;29;20057;-75
2024/04/02 08:33:25;;;;;;;0.00;0.00;;;;;;;11.12;100.00;99063.19;4813448;29;20039;-74
2024/04/02 08:35:51;;;;;;;0.05;0.05;;;;;;;12.24;100.00;99070.19;4804749;29;20171;-76
2024/04/02 08:38:19;;;;;;;0.00;0.00;;;;;;;12.88;100.00;99085.63;4806443;29;20483;-75
2024/04/02 08:40:56;;;;;;;0.00;0.00;;;;;;;12.96;100.00;99084.84;4784358;29;20149;-75
2024/04/02 08:43:22;;;;;;;0.00;0.00;;;;;;;12.85;100.00;99088.97;4798669;29;20035;-74
2024/04/02 08:45:48;;;;;;;0.00;0.00;;;;;;;12.48;100.00;99088.25;4816785;29;20080;-75
2024/04/02 08:48:17;;;;;;;0.00;0.00;;;;;;;12.95;100.00;99110.66;4785667;29;20407;-74
2024/04/02 08:50:42;;;;;;;0.00;0.00;;;;;;;13.59;99.81;99077.41;4805536;29;20439;-77
2024/04/02 08:53:08;;;;;;;0.00;0.00;;;;;;;13.55;96.36;99103.06;4800490;29;20061;-76
2024/04/02 08:55:39;;;;;;;0.00;0.00;;;;;;;13.16;99.22;99101.91;4803572;29;20058;-75
2024/04/02 08:58:08;;;;;;;0.10;0.10;;;;;;;12.82;100.00;99089.59;4795475;29;20043;-75
2024/04/02 09:00:34;;;;;;;0.00;0.00;;;;;;;13.30;100.00;99097.09;4785480;29;20026;-76
2024/04/02 09:03:09;;;;;;;0.00;0.00;;;;;;;15.51;97.48;99101.19;4801358;29;20031;-77
2024/04/02 09:05:37;;;;;;;0.05;0.05;;;;;;;18.27;73.13;99119.59;4768200;29;20035;-75
2024/04/02 09:08:09;;;;;;;0.00;0.00;;;;;;;19.07;67.57;99121.84;4812391;29;20529;-74
2024/04/02 09:10:37;;;;;;;0.00;0.00;;;;;;;19.85;58.21;99122.25;4798747;29;20395;-75
2024/04/02 09:13:03;;;;;;;0.00;0.00;;;;;;;19.64;63.41;99128.03;4786790;29;20540;-76
2024/04/02 09:15:30;;;;;;;0.00;0.00;;;;;;;21.45;55.72;99127.91;4800875;29;20058;-77
2024/04/02 09:17:58;;;;;;;0.00;0.00;;;;;;;20.94;56.05;99115.06;4800935;29;20087;-77
2024/04/02 09:20:23;;;;;;;0.00;0.00;;;;;;;19.57;59.12;99123.16;4795500;29;20035;-76
2024/04/02 09:22:49;;;;;;;0.00;0.00;;;;;;;18.16;62.46;99135.06;4801265;29;20747;-76
2024/04/02 09:25:16;;;;;;;0.00;0.00;;;;;;;16.88;68.13;99145.06;4813722;29;20509;-76
2024/04/02 09:27:42;;;;;;;0.00;0.00;;;;;;;15.65;71.60;99127.69;4803123;29;20026;-76
2024/04/02 09:30:10;;;;;;;0.00;0.00;;;;;;;15.30;75.34;99155.38;4797858;29;20034;-77
2024/04/02 09:32:39;;;;;;;0.00;0.00;;;;;;;15.84;74.46;99158.44;4811571;29;20047;-76
2024/04/02 09:35:25;;;;;;;0.00;0.00;;;;;;;17.33;67.12;99137.91;4802254;29;20034;-76
2024/04/02 09:37:51;;;;;;;0.00;0.00;;;;;;;19.78;53.79;99144.25;4820314;29;20026;-76
2024/04/02 09:40:18;;;;;;;0.05;0.05;;;;;;;19.27;54.18;99148.50;4784674;29;20035;-77
2024/04/02 09:42:47;;;;;;;0.00;0.00;;;;;;;17.74;55.81;99151.88;4813541;29;20121;-74
2024/04/02 09:45:17;;;;;;;0.00;0.00;;;;;;;16.69;60.98;99136.41;4804238;29;20053;-75
2024/04/02 09:47:47;;;;;;;0.00;0.00;;;;;;;17.79;62.60;99143.38;4791224;29;20039;-76
2024/04/02 09:50:13;;;;;;;0.00;0.00;;;;;;;20.54;55.53;99141.22;4803926;29;20038;-76
2024/04/02 09:52:41;;;;;;;0.00;0.00;;;;;;;22.36;51.78;99133.72;4785576;29;20038;-77
2024/04/02 09:55:11;;;;;;;0.00;0.00;;;;;;;23.80;46.42;99143.63;4802548;29;20195;-75
2024/04/02 09:57:40;;;;;;;0.00;0.00;;;;;;;23.34;44.87;99150.38;4802377;29;20050;-76
2024/04/02 10:00:08;;;;;;;0.00;0.00;;;;;;;23.16;45.54;99150.22;4826645;29;20058;-75
2024/04/02 10:02:35;;;;;;;0.00;0.00;;;;;;;27.24;38.63;99168.06;4809697;29;20042;-74
2024/04/02 10:05:08;;;;;;;0.00;0.00;;;;;;;31.46;30.33;99145.91;4804250;29;20123;-75
2024/04/02 10:07:42;;;;;;;0.00;0.00;;;;;;;31.57;28.76;99143.66;4794447;29;20038;-75
2024/04/02 10:10:08;;;;;;;;;;;;;;;30.02;29.68;99160.94;4803958;29;20486;-76
2024/04/02 10:13:00;;;;;;;0.00;0.00;;;;;;;27.52;32.12;99164.28;4808307;29;20015;-75
2024/04/02 10:15:25;;;;;;;0.00;0.00;;;;;;;24.58;36.60;99148.13;4801973;29;20039;-75
2024/04/02 10:18:00;;;;;;;0.00;0.00;;;;;;;23.39;38.10;99156.81;4779518;29;20078;-76
2024/04/02 10:20:28;;;;;;;0.00;0.00;;;;;;;22.32;39.02;99174.63;4806207;29;20041;-75
2024/04/02 10:22:54;;;;;;;0.00;0.00;;;;;;;20.77;42.49;99165.53;4800265;29;20478;-76
2024/04/02 10:25:20;;;;;;;0.00;0.00;;;;;;;19.30;44.21;99172.78;4803358;29;20046;-75
2024/04/02 10:27:51;;;;;;;0.00;0.00;;;;;;;18.06;47.27;99179.78;4813000;29;20490;-75
2024/04/02 10:30:21;;;;;;;0.00;0.00;;;;;;;16.85;49.96;99178.84;4806267;29;20027;-74
2024/04/02 10:32:47;;;;;;;0.00;0.00;;;;;;;16.50;53.03;99168.09;4816072;29;20034;-76
2024/04/02 10:35:30;;;;;;;0.00;0.00;;;;;;;17.46;52.12;99152.56;4799823;29;20122;-76
2024/04/02 10:37:58;;;;;;;0.00;0.00;;;;;;;18.01;50.90;99155.16;4792515;29;20035;-75
2024/04/02 10:40:24;;;;;;;0.00;0.00;;;;;;;18.12;50.65;99186.69;4803185;29;20042;-75
2024/04/02 10:42:51;;;;;;;0.00;0.00;;;;;;;17.76;50.83;99180.81;4817598;29;20046;-74
2024/04/02 10:45:18;;;;;;;0.00;0.00;;;;;;;17.34;51.71;99180.16;4819338;29;20156;-75
2024/04/02 10:47:53;;;;;;;0.00;0.00;;;;;;;17.40;52.56;99190.66;4805496;29;20022;-75
2024/04/02 10:50:20;;;;;;;0.00;0.00;;;;;;;20.26;46.71;99197.72;4803825;29;20045;-75
2024/04/02 10:52:46;;;;;;;0.00;0.00;;;;;;;23.18;40.85;99200.81;4786790;29;20043;-75
2024/04/02 10:55:11;;;;;;;0.00;0.00;;;;;;;24.47;37.82;99197.53;4811753;29;20030;-74
2024/04/02 10:57:39;;;;;;;0.00;0.00;;;;;;;23.70;38.08;99211.31;4793343;29;20035;-75
2024/04/02 11:00:08;;;;;;;0.00;0.00;;;;;;;22.08;40.46;99178.63;4803999;29;20374;-74
2024/04/02 11:02:34;;;;;;;0.00;0.00;;;;;;;21.24;41.82;99189.47;4802914;29;20496;-75
2024/04/02 11:05:00;;;;;;;0.00;0.00;;;;;;;19.66;43.02;99176.44;4803828;29;20066;-75
2024/04/02 11:07:26;;;;;;;0.10;0.10;;;;;;;17.86;46.85;99182.31;4804685;29;20402;-75
2024/04/02 11:09:53;;;;;;;0.00;0.00;;;;;;;16.94;49.81;99187.06;4802045;29;20039;-75
2024/04/02 11:12:19;;;;;;;0.00;0.00;;;;;;;16.13;51.80;99165.06;4817383;29;20530;-74
2024/04/02 11:14:47;;;;;;;0.10;0.10;;;;;;;15.52;54.28;99157.91;4802640;29;20038;-75
2024/04/02 11:17:13;;;;;;;0.00;0.00;;;;;;;15.31;55.91;99188.09;4804051;29;20031;-74
2024/04/02 11:19:38;;;;;;;0.00;0.00;;;;;;;15.32;57.42;99158.63;4807798;29;20053;-74
2024/04/02 11:24:58;;;;;;;0.00;0.00;;;;;;;18.31;52.38;99177.81;4812811;29;20629;-75
2024/04/02 11:27:27;;;;;;;0.00;0.00;;;;;;;19.08;50.18;99173.34;4804772;29;20047;-73
2024/04/02 11:29:53;;;;;;;0.10;0.10;;;;;;;21.26;46.95;99162.09;4800204;29;20030;-75
2024/04/02 11:32:23;;;;;;;0.00;0.00;;;;;;;25.11;39.59;99157.13;4818395;29;20049;-75
2024/04/02 11:34:56;;;;;;;0.00;0.00;;;;;;;27.68;33.03;99156.13;4798350;29;20022;-75
2024/04/02 11:37:22;;;;;;;0.10;0.10;;;;;;;25.81;33.77;99164.44;4801148;29;20031;-75
2024/04/02 11:39:47;;;;;;;0.00;0.00;;;;;;;25.45;34.59;99154.00;4807262;29;20094;-75
2024/04/02 11:42:12;;;;;;;0.00;0.00;;;;;;;24.31;35.39;99155.16;4802660;29;20113;-75
2024/04/02 11:44:38;;;;;;;0.00;0.00;;;;;;;23.15;37.04;99145.81;4802509;29;20119;-74
2024/04/02 11:47:13;;;;;;;0.00;0.00;;;;;;;21.62;39.81;99176.69;4802977;29;20030;-74
2024/04/02 11:49:44;;;;;;;0.00;0.00;;;;;;;20.12;43.32;99169.63;4805094;29;20043;-75
2024/04/02 11:52:11;;;;;;;0.00;0.00;;;;;;;19.56;44.06;99142.91;4802733;29;20039;-75
2024/04/02 11:54:36;;;;;;;0.00;0.00;;;;;;;19.87;43.87;99173.44;4796331;29;20038;-75
2024/04/02 12:02:35;;;;;;;0.00;0.00;;;;;;;19.05;46.08;99146.34;4804882;29;20042;-75
2024/04/02 12:05:01;;;;;;;0.00;0.00;;;;;;;18.14;47.94;99149.25;4773328;29;20440;-74
2024/04/02 12:07:29;;;;;;;0.00;0.00;;;;;;;17.25;48.95;99174.75;4813558;29;20031;-76
2024/04/02 12:09:56;;;;;;;0.00;0.00;;;;;;;16.40;51.39;99163.75;4801586;29;20117;-75